Alpha, IL

3:30 PM CDT on May 29, 2015 (GMT -0500)
Galesburg Municipal | | Change Station
CLOSE
Current Station
Airport
Location: Galesburg,
Elevation: 764 ft
Nearby Weather Stations

Elev 764 ft 40.94 °N, 90.43 °W | Updated 15 minutes ago

Mostly Cloudy
Mostly Cloudy
80 °F
Feels Like 80 °F
N
12
Wind Variable Wind from WSW

Today
High -- | Low -- °F
--% Chance of Precip.
Yesterday
High -- | Low -- °F
Precip. -- in
5:32 AM 8:25 PM
Waxing Gibbous, 85% visible
Pressure 29.95 in
Visibility 10.0 miles
Clouds Scattered Clouds 3300 ft
Mostly Cloudy 3900 ft
Mostly Cloudy 5000 ft
Dew Point 66 °F
Humidity 63%
Rainfall 0.00 in
Snow Depth Not available.
UV 5 out of 12
Pollen .90 out of 12
Air Quality Not available.
Flu Activity Sporadic
METAR KGBG 292015Z AUTO 24010KT 10SM SCT033 BKN039 BKN050 27/19 A2995 RMK AO2 T02660190

More Conditions Fewer Conditions

Pressure 29.95 in
Visibility 10.0 miles
Clouds Scattered Clouds 3300 ft
Mostly Cloudy 3900 ft
Mostly Cloudy 5000 ft
Dew Point 66 °F
Humidity 63%
Rainfall 0.00 in
Snow Depth Not available.
UV 5 out of 12
Pollen .90 out of 12
Air Quality Not available.
Flu Activity Sporadic
METAR KGBG 292015Z AUTO 24010KT 10SM SCT033 BKN039 BKN050 27/19 A2995 RMK AO2 T02660190

More Conditions Fewer Conditions

10-Day Weather Forecast

Almanac

Astronomy

May. 29, 2015 Rise Set
Actual Time
Civil Twilight
Nautical Twilight
Astronomical Twilight
Moon
Length of Visible Light
Length of Day
Tomorrow will be .
, % of the Moon is Illuminated

Today's Extremes

State Highs State Lows

Community

WunderPhotos

Upload Photos

1,825,347 photos uploaded!

WunderBlogs® & News

Nearby

Air Quality

  Air Quality AQ Index Pollutant
Not available.

Snow Depth

Station Depth Elevation

Earthquake Activity

City Distance Mag. Time & Date
Minimum magnitude displayed is 2.5.

Coastal Water Temperatures

Place Temperature

Stations

Nearby Weather Stations

Station Location Temp. Windchill Dew Point Humidity Wind Precip. Elev Updated Type